sensor_id;sensor_type;location;lat;lon;timestamp;temperature;humidity
6210;DHT22;3138;52.550;13.148;2022-09-01T00:01:31;14.80;99.90
6210;DHT22;3138;52.550;13.148;2022-09-01T00:03:59;14.80;99.90
6210;DHT22;3138;52.550;13.148;2022-09-01T00:06:30;14.80;99.90
6210;DHT22;3138;52.550;13.148;2022-09-01T00:08:59;14.80;99.90
6210;DHT22;3138;52.550;13.148;2022-09-01T00:11:27;14.80;99.90
6210;DHT22;3138;52.550;13.148;2022-09-01T00:13:55;14.80;99.90
6210;DHT22;3138;52.550;13.148;2022-09-01T00:16:22;14.70;99.90
6210;DHT22;3138;52.550;13.148;2022-09-01T00:18:51;14.70;99.90
6210;DHT22;3138;52.550;13.148;2022-09-01T00:21:21;14.70;99.90
6210;DHT22;3138;52.550;13.148;2022-09-01T00:23:48;14.70;99.90
6210;DHT22;3138;52.550;13.148;2022-09-01T00:26:15;14.70;99.90
6210;DHT22;3138;52.550;13.148;2022-09-01T00:28:43;14.70;99.90
6210;DHT22;3138;52.550;13.148;2022-09-01T00:31:10;14.70;99.90
6210;DHT22;3138;52.550;13.148;2022-09-01T00:33:38;14.70;99.90
6210;DHT22;3138;52.550;13.148;2022-09-01T00:36:06;14.70;99.90
6210;DHT22;3138;52.550;13.148;2022-09-01T00:38:33;14.70;99.90
6210;DHT22;3138;52.550;13.148;2022-09-01T00:41:00;14.60;99.90
6210;DHT22;3138;52.550;13.148;2022-09-01T00:43:36;14.70;99.90
6210;DHT22;3138;52.550;13.148;2022-09-01T00:46:06;14.60;99.90
6210;DHT22;3138;52.550;13.148;2022-09-01T00:48:34;14.60;99.90
6210;DHT22;3138;52.550;13.148;2022-09-01T00:51:02;14.60;99.90
6210;DHT22;3138;52.550;13.148;2022-09-01T00:53:30;14.50;99.90
6210;DHT22;3138;52.550;13.148;2022-09-01T00:55:58;14.50;99.90
6210;DHT22;3138;52.550;13.148;2022-09-01T00:58:25;14.50;99.90
6210;DHT22;3138;52.550;13.148;2022-09-01T01:00:52;14.50;99.90
6210;DHT22;3138;52.550;13.148;2022-09-01T01:03:20;14.50;99.90
6210;DHT22;3138;52.550;13.148;2022-09-01T01:05:52;14.50;99.90
6210;DHT22;3138;52.550;13.148;2022-09-01T01:08:21;14.50;99.90
6210;DHT22;3138;52.550;13.148;2022-09-01T01:10:53;14.50;99.90
6210;DHT22;3138;52.550;13.148;2022-09-01T01:13:20;14.50;99.90
6210;DHT22;3138;52.550;13.148;2022-09-01T01:15:48;14.40;99.90
6210;DHT22;3138;52.550;13.148;2022-09-01T01:18:15;14.40;99.90
6210;DHT22;3138;52.550;13.148;2022-09-01T01:20:44;14.40;99.90
6210;DHT22;3138;52.550;13.148;2022-09-01T01:23:38;14.40;99.90
6210;DHT22;3138;52.550;13.148;2022-09-01T01:26:09;14.40;99.90
6210;DHT22;3138;52.550;13.148;2022-09-01T01:28:39;14.40;99.90
6210;DHT22;3138;52.550;13.148;2022-09-01T01:31:09;14.30;99.90
6210;DHT22;3138;52.550;13.148;2022-09-01T01:33:39;14.30;99.90
6210;DHT22;3138;52.550;13.148;2022-09-01T01:36:07;14.30;99.90
6210;DHT22;3138;52.550;13.148;2022-09-01T01:38:37;14.20;99.90
6210;DHT22;3138;52.550;13.148;2022-09-01T01:41:06;14.20;99.90
6210;DHT22;3138;52.550;13.148;2022-09-01T01:43:33;14.20;99.90
6210;DHT22;3138;52.550;13.148;2022-09-01T01:46:00;14.10;99.90
6210;DHT22;3138;52.550;13.148;2022-09-01T01:48:28;14.20;99.90
6210;DHT22;3138;52.550;13.148;2022-09-01T01:51:00;14.10;99.90
6210;DHT22;3138;52.550;13.148;2022-09-01T01:53:27;14.00;99.90
6210;DHT22;3138;52.550;13.148;2022-09-01T01:55:54;14.00;99.90
6210;DHT22;3138;52.550;13.148;2022-09-01T01:58:24;14.00;99.90
6210;DHT22;3138;52.550;13.148;2022-09-01T02:00:56;14.00;99.90
6210;DHT22;3138;52.550;13.148;2022-09-01T02:03:26;14.00;99.90
6210;DHT22;3138;52.550;13.148;2022-09-01T02:05:55;14.00;99.90
6210;DHT22;3138;52.550;13.148;2022-09-01T02:08:23;14.00;99.90
6210;DHT22;3138;52.550;13.148;2022-09-01T02:10:52;13.90;99.90
6210;DHT22;3138;52.550;13.148;2022-09-01T02:13:21;13.90;99.90
6210;DHT22;3138;52.550;13.148;2022-09-01T02:15:52;13.90;99.90
6210;DHT22;3138;52.550;13.148;2022-09-01T02:18:22;13.90;99.90
6210;DHT22;3138;52.550;13.148;2022-09-01T02:20:52;13.90;99.90
6210;DHT22;3138;52.550;13.148;2022-09-01T02:23:21;13.90;99.90
6210;DHT22;3138;52.550;13.148;2022-09-01T02:25:51;13.90;99.90
6210;DHT22;3138;52.550;13.148;2022-09-01T02:28:19;13.80;99.90
6210;DHT22;3138;52.550;13.148;2022-09-01T02:30:50;13.80;99.90
6210;DHT22;3138;52.550;13.148;2022-09-01T02:33:19;13.80;99.90
6210;DHT22;3138;52.550;13.148;2022-09-01T02:35:47;13.70;99.90
6210;DHT22;3138;52.550;13.148;2022-09-01T02:38:15;13.70;99.90
6210;DHT22;3138;52.550;13.148;2022-09-01T02:40:45;13.60;99.90
6210;DHT22;3138;52.550;13.148;2022-09-01T02:43:14;13.50;99.90
6210;DHT22;3138;52.550;13.148;2022-09-01T02:45:44;13.50;99.90
6210;DHT22;3138;52.550;13.148;2022-09-01T02:48:12;13.40;99.90
6210;DHT22;3138;52.550;13.148;2022-09-01T02:50:41;13.40;99.90
6210;DHT22;3138;52.550;13.148;2022-09-01T02:53:08;13.30;99.90
6210;DHT22;3138;52.550;13.148;2022-09-01T02:55:36;13.30;99.90
6210;DHT22;3138;52.550;13.148;2022-09-01T02:58:03;13.20;99.90
6210;DHT22;3138;52.550;13.148;2022-09-01T03:00:32;13.10;99.90
6210;DHT22;3138;52.550;13.148;2022-09-01T03:03:05;13.00;99.90
6210;DHT22;3138;52.550;13.148;2022-09-01T03:05:33;13.00;99.90
6210;DHT22;3138;52.550;13.148;2022-09-01T03:08:07;12.80;99.90
6210;DHT22;3138;52.550;13.148;2022-09-01T03:10:37;12.80;99.90
6210;DHT22;3138;52.550;13.148;2022-09-01T03:13:09;12.80;99.90
6210;DHT22;3138;52.550;13.148;2022-09-01T03:15:37;12.70;99.90
6210;DHT22;3138;52.550;13.148;2022-09-01T03:18:06;12.50;99.90
6210;DHT22;3138;52.550;13.148;2022-09-01T03:20:34;12.50;99.90
6210;DHT22;3138;52.550;13.148;2022-09-01T03:23:06;12.40;99.90
6210;DHT22;3138;52.550;13.148;2022-09-01T03:25:34;12.40;99.90
6210;DHT22;3138;52.550;13.148;2022-09-01T03:28:02;12.30;99.90
6210;DHT22;3138;52.550;13.148;2022-09-01T03:30:30;12.00;99.90
6210;DHT22;3138;52.550;13.148;2022-09-01T03:32:59;11.90;99.90
6210;DHT22;3138;52.550;13.148;2022-09-01T03:35:27;12.00;99.90
6210;DHT22;3138;52.550;13.148;2022-09-01T03:37:56;11.90;99.90
6210;DHT22;3138;52.550;13.148;2022-09-01T03:40:26;11.90;99.90
6210;DHT22;3138;52.550;13.148;2022-09-01T03:42:54;11.80;99.90
6210;DHT22;3138;52.550;13.148;2022-09-01T03:45:21;11.80;99.90
6210;DHT22;3138;52.550;13.148;2022-09-01T03:47:50;11.70;99.90
6210;DHT22;3138;52.550;13.148;2022-09-01T03:50:20;11.60;99.90
6210;DHT22;3138;52.550;13.148;2022-09-01T03:52:47;11.50;99.90
6210;DHT22;3138;52.550;13.148;2022-09-01T03:55:15;11.40;99.90
6210;DHT22;3138;52.550;13.148;2022-09-01T03:57:49;11.40;99.90
6210;DHT22;3138;52.550;13.148;2022-09-01T04:00:17;11.30;99.90
6210;DHT22;3138;52.550;13.148;2022-09-01T04:02:47;11.20;99.90
6210;DHT22;3138;52.550;13.148;2022-09-01T04:05:15;11.20;99.90
6210;DHT22;3138;52.550;13.148;2022-09-01T04:07:43;11.10;99.90
6210;DHT22;3138;52.550;13.148;2022-09-01T04:10:11;11.10;99.90
6210;DHT22;3138;52.550;13.148;2022-09-01T04:12:38;11.00;99.90
6210;DHT22;3138;52.550;13.148;2022-09-01T04:15:07;11.00;99.90
6210;DHT22;3138;52.550;13.148;2022-09-01T04:17:34;11.10;99.90
6210;DHT22;3138;52.550;13.148;2022-09-01T04:20:19;11.10;99.90
6210;DHT22;3138;52.550;13.148;2022-09-01T04:22:46;11.20;99.90
6210;DHT22;3138;52.550;13.148;2022-09-01T04:25:15;11.20;99.90
6210;DHT22;3138;52.550;13.148;2022-09-01T04:27:42;11.10;99.90
6210;DHT22;3138;52.550;13.148;2022-09-01T04:30:11;11.10;99.90
6210;DHT22;3138;52.550;13.148;2022-09-01T04:32:38;11.10;99.90
6210;DHT22;3138;52.550;13.148;2022-09-01T04:35:07;11.10;99.90
6210;DHT22;3138;52.550;13.148;2022-09-01T04:37:36;11.20;99.90
6210;DHT22;3138;52.550;13.148;2022-09-01T04:40:03;11.10;99.90
6210;DHT22;3138;52.550;13.148;2022-09-01T04:42:30;11.00;99.90
6210;DHT22;3138;52.550;13.148;2022-09-01T04:44:58;11.00;99.90
6210;DHT22;3138;52.550;13.148;2022-09-01T04:47:27;10.80;99.90
6210;DHT22;3138;52.550;13.148;2022-09-01T04:49:55;10.80;99.90
6210;DHT22;3138;52.550;13.148;2022-09-01T04:52:25;10.90;99.90
6210;DHT22;3138;52.550;13.148;2022-09-01T04:54:52;11.00;99.90
6210;DHT22;3138;52.550;13.148;2022-09-01T04:57:19;11.10;99.90
6210;DHT22;3138;52.550;13.148;2022-09-01T04:59:46;11.30;99.90
6210;DHT22;3138;52.550;13.148;2022-09-01T05:02:13;11.40;99.90
6210;DHT22;3138;52.550;13.148;2022-09-01T05:04:41;11.50;99.90
6210;DHT22;3138;52.550;13.148;2022-09-01T05:07:11;11.60;99.90
6210;DHT22;3138;52.550;13.148;2022-09-01T05:09:38;11.70;99.90
6210;DHT22;3138;52.550;13.148;2022-09-01T05:12:06;11.80;99.90
6210;DHT22;3138;52.550;13.148;2022-09-01T05:14:43;11.90;99.90
6210;DHT22;3138;52.550;13.148;2022-09-01T05:17:12;12.10;99.90
6210;DHT22;3138;52.550;13.148;2022-09-01T05:19:43;12.30;99.90
6210;DHT22;3138;52.550;13.148;2022-09-01T05:22:12;12.40;99.90
6210;DHT22;3138;52.550;13.148;2022-09-01T05:24:40;12.50;99.90
6210;DHT22;3138;52.550;13.148;2022-09-01T05:27:07;12.60;99.90
6210;DHT22;3138;52.550;13.148;2022-09-01T05:29:34;12.80;99.90
6210;DHT22;3138;52.550;13.148;2022-09-01T05:32:03;12.90;99.90
6210;DHT22;3138;52.550;13.148;2022-09-01T05:34:34;13.10;99.90
6210;DHT22;3138;52.550;13.148;2022-09-01T05:37:06;13.30;99.90
6210;DHT22;3138;52.550;13.148;2022-09-01T05:39:33;13.50;99.90
6210;DHT22;3138;52.550;13.148;2022-09-01T05:42:04;13.50;99.90
6210;DHT22;3138;52.550;13.148;2022-09-01T05:44:32;13.70;99.90
6210;DHT22;3138;52.550;13.148;2022-09-01T05:46:59;13.80;99.90
6210;DHT22;3138;52.550;13.148;2022-09-01T05:49:29;13.80;99.90
6210;DHT22;3138;52.550;13.148;2022-09-01T05:51:57;13.80;99.90
6210;DHT22;3138;52.550;13.148;2022-09-01T05:54:26;14.20;99.90
6210;DHT22;3138;52.550;13.148;2022-09-01T05:56:53;14.10;99.90
6210;DHT22;3138;52.550;13.148;2022-09-01T05:59:21;14.20;99.90
6210;DHT22;3138;52.550;13.148;2022-09-01T06:01:50;14.30;99.90
6210;DHT22;3138;52.550;13.148;2022-09-01T06:04:17;14.20;99.90
6210;DHT22;3138;52.550;13.148;2022-09-01T06:06:46;14.30;99.90
6210;DHT22;3138;52.550;13.148;2022-09-01T06:09:15;14.50;99.90
6210;DHT22;3138;52.550;13.148;2022-09-01T06:11:45;14.60;99.90
6210;DHT22;3138;52.550;13.148;2022-09-01T06:14:12;14.80;99.90
6210;DHT22;3138;52.550;13.148;2022-09-01T06:16:40;14.90;99.90
6210;DHT22;3138;52.550;13.148;2022-09-01T06:19:07;15.30;99.90
6210;DHT22;3138;52.550;13.148;2022-09-01T06:21:35;15.30;99.90
6210;DHT22;3138;52.550;13.148;2022-09-01T06:24:02;15.30;99.90
6210;DHT22;3138;52.550;13.148;2022-09-01T06:26:34;15.30;99.90
6210;DHT22;3138;52.550;13.148;2022-09-01T06:29:06;15.40;99.90
6210;DHT22;3138;52.550;13.148;2022-09-01T06:31:35;15.60;99.90
6210;DHT22;3138;52.550;13.148;2022-09-01T06:34:04;15.70;99.90
6210;DHT22;3138;52.550;13.148;2022-09-01T06:36:34;15.50;99.90
6210;DHT22;3138;52.550;13.148;2022-09-01T06:39:03;15.80;99.90
6210;DHT22;3138;52.550;13.148;2022-09-01T06:41:30;15.90;99.90
6210;DHT22;3138;52.550;13.148;2022-09-01T06:43:57;16.10;99.90
6210;DHT22;3138;52.550;13.148;2022-09-01T06:46:26;16.00;99.90
6210;DHT22;3138;52.550;13.148;2022-09-01T06:48:54;16.10;99.90
6210;DHT22;3138;52.550;13.148;2022-09-01T06:51:24;16.50;99.90
6210;DHT22;3138;52.550;13.148;2022-09-01T06:53:53;16.50;99.90
6210;DHT22;3138;52.550;13.148;2022-09-01T06:56:24;16.60;99.90
6210;DHT22;3138;52.550;13.148;2022-09-01T06:58:56;16.70;99.90
6210;DHT22;3138;52.550;13.148;2022-09-01T07:01:24;16.40;99.90
6210;DHT22;3138;52.550;13.148;2022-09-01T07:03:54;16.30;99.90
6210;DHT22;3138;52.550;13.148;2022-09-01T07:06:23;16.60;99.90
6210;DHT22;3138;52.550;13.148;2022-09-01T07:08:52;16.70;99.90
6210;DHT22;3138;52.550;13.148;2022-09-01T07:11:21;16.90;99.90
6210;DHT22;3138;52.550;13.148;2022-09-01T07:13:53;17.00;99.90
6210;DHT22;3138;52.550;13.148;2022-09-01T07:16:22;17.10;99.90
6210;DHT22;3138;52.550;13.148;2022-09-01T07:18:53;17.00;99.90
6210;DHT22;3138;52.550;13.148;2022-09-01T07:21:22;17.30;99.90
6210;DHT22;3138;52.550;13.148;2022-09-01T07:23:50;17.30;99.90
6210;DHT22;3138;52.550;13.148;2022-09-01T07:26:17;17.50;99.90
6210;DHT22;3138;52.550;13.148;2022-09-01T07:28:47;17.70;99.90
6210;DHT22;3138;52.550;13.148;2022-09-01T07:31:18;18.10;99.90
6210;DHT22;3138;52.550;13.148;2022-09-01T07:33:46;18.00;99.90
6210;DHT22;3138;52.550;13.148;2022-09-01T07:36:15;18.00;99.90
6210;DHT22;3138;52.550;13.148;2022-09-01T07:38:43;17.80;99.90
6210;DHT22;3138;52.550;13.148;2022-09-01T07:41:10;18.10;99.90
6210;DHT22;3138;52.550;13.148;2022-09-01T07:43:38;18.10;98.80
6210;DHT22;3138;52.550;13.148;2022-09-01T07:46:07;17.80;98.50
6210;DHT22;3138;52.550;13.148;2022-09-01T07:48:34;17.70;99.00
6210;DHT22;3138;52.550;13.148;2022-09-01T07:51:00;18.20;98.40
6210;DHT22;3138;52.550;13.148;2022-09-01T07:53:32;17.90;97.80
6210;DHT22;3138;52.550;13.148;2022-09-01T07:56:08;18.00;97.10
6210;DHT22;3138;52.550;13.148;2022-09-01T07:58:37;18.20;95.70
6210;DHT22;3138;52.550;13.148;2022-09-01T08:01:06;18.10;95.00
6210;DHT22;3138;52.550;13.148;2022-09-01T08:03:34;18.00;95.80
6210;DHT22;3138;52.550;13.148;2022-09-01T08:06:03;18.30;96.00
6210;DHT22;3138;52.550;13.148;2022-09-01T08:08:32;18.50;94.80
6210;DHT22;3138;52.550;13.148;2022-09-01T08:10:59;18.40;93.70
6210;DHT22;3138;52.550;13.148;2022-09-01T08:13:27;18.30;94.10
6210;DHT22;3138;52.550;13.148;2022-09-01T08:15:54;18.30;93.80
6210;DHT22;3138;52.550;13.148;2022-09-01T08:18:21;18.60;94.70
6210;DHT22;3138;52.550;13.148;2022-09-01T08:20:48;18.50;93.10
6210;DHT22;3138;52.550;13.148;2022-09-01T08:23:16;18.20;93.20
6210;DHT22;3138;52.550;13.148;2022-09-01T08:25:45;18.50;92.80
6210;DHT22;3138;52.550;13.148;2022-09-01T08:28:14;18.50;92.70
6210;DHT22;3138;52.550;13.148;2022-09-01T08:30:42;18.70;92.30
6210;DHT22;3138;52.550;13.148;2022-09-01T08:33:09;19.10;91.80
6210;DHT22;3138;52.550;13.148;2022-09-01T08:35:37;19.00;90.70
6210;DHT22;3138;52.550;13.148;2022-09-01T08:38:04;18.90;90.60
6210;DHT22;3138;52.550;13.148;2022-09-01T08:40:31;18.80;90.50
6210;DHT22;3138;52.550;13.148;2022-09-01T08:43:07;19.00;91.20
6210;DHT22;3138;52.550;13.148;2022-09-01T08:45:45;19.00;90.80
6210;DHT22;3138;52.550;13.148;2022-09-01T08:48:16;19.10;89.40
6210;DHT22;3138;52.550;13.148;2022-09-01T08:50:50;19.00;88.20
6210;DHT22;3138;52.550;13.148;2022-09-01T08:53:24;18.70;88.90
6210;DHT22;3138;52.550;13.148;2022-09-01T08:55:56;19.10;90.60
6210;DHT22;3138;52.550;13.148;2022-09-01T08:58:30;19.20;87.20
6210;DHT22;3138;52.550;13.148;2022-09-01T09:01:00;19.30;84.90
6210;DHT22;3138;52.550;13.148;2022-09-01T09:03:34;19.70;84.60
6210;DHT22;3138;52.550;13.148;2022-09-01T09:06:11;19.40;86.60
6210;DHT22;3138;52.550;13.148;2022-09-01T09:08:52;19.10;87.70
6210;DHT22;3138;52.550;13.148;2022-09-01T09:14:20;19.30;85.70
6210;DHT22;3138;52.550;13.148;2022-09-01T09:16:53;19.70;85.30
6210;DHT22;3138;52.550;13.148;2022-09-01T09:19:22;19.60;82.70
6210;DHT22;3138;52.550;13.148;2022-09-01T09:21:52;19.40;79.60
6210;DHT22;3138;52.550;13.148;2022-09-01T09:24:25;18.90;82.30
6210;DHT22;3138;52.550;13.148;2022-09-01T09:26:53;19.10;84.10
6210;DHT22;3138;52.550;13.148;2022-09-01T09:29:22;19.40;84.50
6210;DHT22;3138;52.550;13.148;2022-09-01T09:32:02;19.90;82.90
6210;DHT22;3138;52.550;13.148;2022-09-01T09:34:32;20.30;79.20
6210;DHT22;3138;52.550;13.148;2022-09-01T09:37:18;20.30;77.40
6210;DHT22;3138;52.550;13.148;2022-09-01T09:40:02;20.40;77.20
6210;DHT22;3138;52.550;13.148;2022-09-01T09:42:30;20.60;75.40
6210;DHT22;3138;52.550;13.148;2022-09-01T09:44:58;20.10;75.60
6210;DHT22;3138;52.550;13.148;2022-09-01T09:47:35;19.60;76.70
6210;DHT22;3138;52.550;13.148;2022-09-01T09:50:19;20.00;77.30
6210;DHT22;3138;52.550;13.148;2022-09-01T09:52:48;20.30;71.90
6210;DHT22;3138;52.550;13.148;2022-09-01T09:55:27;20.20;69.00
6210;DHT22;3138;52.550;13.148;2022-09-01T09:57:57;19.60;71.70
6210;DHT22;3138;52.550;13.148;2022-09-01T10:00:28;19.60;73.40
6210;DHT22;3138;52.550;13.148;2022-09-01T10:02:58;20.00;69.70
6210;DHT22;3138;52.550;13.148;2022-09-01T10:05:39;20.30;68.20
6210;DHT22;3138;52.550;13.148;2022-09-01T10:08:07;20.70;66.00
6210;DHT22;3138;52.550;13.148;2022-09-01T10:10:41;20.50;66.50
6210;DHT22;3138;52.550;13.148;2022-09-01T10:13:11;20.50;67.40
6210;DHT22;3138;52.550;13.148;2022-09-01T10:15:40;20.10;67.60
6210;DHT22;3138;52.550;13.148;2022-09-01T10:18:12;20.20;67.30
6210;DHT22;3138;52.550;13.148;2022-09-01T10:20:45;20.20;68.10
6210;DHT22;3138;52.550;13.148;2022-09-01T10:23:14;20.50;66.70
6210;DHT22;3138;52.550;13.148;2022-09-01T10:25:41;21.30;66.10
6210;DHT22;3138;52.550;13.148;2022-09-01T10:28:13;20.60;64.10
6210;DHT22;3138;52.550;13.148;2022-09-01T10:30:44;20.40;65.70
6210;DHT22;3138;52.550;13.148;2022-09-01T10:33:13;20.10;63.60
6210;DHT22;3138;52.550;13.148;2022-09-01T10:35:42;20.00;63.70
6210;DHT22;3138;52.550;13.148;2022-09-01T10:38:15;20.30;60.70
6210;DHT22;3138;52.550;13.148;2022-09-01T10:40:43;20.70;59.80
6210;DHT22;3138;52.550;13.148;2022-09-01T10:43:34;21.00;57.30
6210;DHT22;3138;52.550;13.148;2022-09-01T10:55:23;21.40;55.70
6210;DHT22;3138;52.550;13.148;2022-09-01T10:57:58;21.20;54.70
6210;DHT22;3138;52.550;13.148;2022-09-01T11:00:47;20.90;55.90
6210;DHT22;3138;52.550;13.148;2022-09-01T11:09:25;22.10;52.50
6210;DHT22;3138;52.550;13.148;2022-09-01T11:12:13;22.50;53.90
6210;DHT22;3138;52.550;13.148;2022-09-01T11:14:49;22.50;53.10
6210;DHT22;3138;52.550;13.148;2022-09-01T11:17:20;22.40;52.40
6210;DHT22;3138;52.550;13.148;2022-09-01T11:19:57;21.90;51.40
6210;DHT22;3138;52.550;13.148;2022-09-01T11:22:31;21.30;53.20
6210;DHT22;3138;52.550;13.148;2022-09-01T11:30:53;21.00;53.30
6210;DHT22;3138;52.550;13.148;2022-09-01T11:33:33;21.10;53.10
6210;DHT22;3138;52.550;13.148;2022-09-01T11:36:05;21.10;52.10
6210;DHT22;3138;52.550;13.148;2022-09-01T11:38:47;20.80;51.40
6210;DHT22;3138;52.550;13.148;2022-09-01T11:41:25;20.50;49.30
6210;DHT22;3138;52.550;13.148;2022-09-01T11:43:56;20.40;49.50
6210;DHT22;3138;52.550;13.148;2022-09-01T11:46:27;20.70;49.60
6210;DHT22;3138;52.550;13.148;2022-09-01T11:48:56;20.70;49.20
6210;DHT22;3138;52.550;13.148;2022-09-01T11:51:24;20.50;48.30
6210;DHT22;3138;52.550;13.148;2022-09-01T11:53:51;20.50;48.40
6210;DHT22;3138;52.550;13.148;2022-09-01T11:56:26;20.60;49.70
6210;DHT22;3138;52.550;13.148;2022-09-01T11:58:53;20.90;50.30
6210;DHT22;3138;52.550;13.148;2022-09-01T12:01:21;21.30;54.10
6210;DHT22;3138;52.550;13.148;2022-09-01T12:03:50;22.00;55.00
6210;DHT22;3138;52.550;13.148;2022-09-01T12:06:21;21.80;55.30
6210;DHT22;3138;52.550;13.148;2022-09-01T12:08:55;20.60;55.70
6210;DHT22;3138;52.550;13.148;2022-09-01T12:11:24;20.40;57.60
6210;DHT22;3138;52.550;13.148;2022-09-01T12:13:59;20.20;58.20
6210;DHT22;3138;52.550;13.148;2022-09-01T12:16:26;20.10;58.80
6210;DHT22;3138;52.550;13.148;2022-09-01T12:18:55;20.10;59.20
6210;DHT22;3138;52.550;13.148;2022-09-01T12:21:25;20.00;58.70
6210;DHT22;3138;52.550;13.148;2022-09-01T12:23:52;20.00;59.00
6210;DHT22;3138;52.550;13.148;2022-09-01T12:26:22;20.00;59.30
6210;DHT22;3138;52.550;13.148;2022-09-01T12:28:49;20.00;59.50
6210;DHT22;3138;52.550;13.148;2022-09-01T12:31:21;20.00;58.40
6210;DHT22;3138;52.550;13.148;2022-09-01T12:33:49;20.00;58.10
6210;DHT22;3138;52.550;13.148;2022-09-01T12:36:21;20.20;57.70
6210;DHT22;3138;52.550;13.148;2022-09-01T12:38:50;20.20;56.50
6210;DHT22;3138;52.550;13.148;2022-09-01T12:41:25;20.40;56.50
6210;DHT22;3138;52.550;13.148;2022-09-01T12:43:52;20.30;56.80
6210;DHT22;3138;52.550;13.148;2022-09-01T12:46:41;20.40;57.90
6210;DHT22;3138;52.550;13.148;2022-09-01T12:49:16;20.30;56.70
6210;DHT22;3138;52.550;13.148;2022-09-01T12:51:44;20.20;56.70
6210;DHT22;3138;52.550;13.148;2022-09-01T12:54:12;20.10;56.80
6210;DHT22;3138;52.550;13.148;2022-09-01T12:56:39;20.00;56.90
6210;DHT22;3138;52.550;13.148;2022-09-01T12:59:09;20.00;56.90
6210;DHT22;3138;52.550;13.148;2022-09-01T13:01:37;20.00;58.50
6210;DHT22;3138;52.550;13.148;2022-09-01T13:06:53;20.80;58.70
6210;DHT22;3138;52.550;13.148;2022-09-01T13:09:20;21.20;54.30
6210;DHT22;3138;52.550;13.148;2022-09-01T13:11:47;21.30;55.40
6210;DHT22;3138;52.550;13.148;2022-09-01T13:14:14;21.50;54.60
6210;DHT22;3138;52.550;13.148;2022-09-01T13:16:42;21.50;54.20
6210;DHT22;3138;52.550;13.148;2022-09-01T13:19:10;22.10;51.70
6210;DHT22;3138;52.550;13.148;2022-09-01T13:21:36;22.40;52.70
6210;DHT22;3138;52.550;13.148;2022-09-01T13:24:05;22.20;51.40
6210;DHT22;3138;52.550;13.148;2022-09-01T13:26:32;21.90;52.30
6210;DHT22;3138;52.550;13.148;2022-09-01T13:28:59;21.90;50.40
6210;DHT22;3138;52.550;13.148;2022-09-01T13:31:26;21.80;51.10
6210;DHT22;3138;52.550;13.148;2022-09-01T13:33:54;21.70;49.50
6210;DHT22;3138;52.550;13.148;2022-09-01T13:36:22;22.00;51.00
6210;DHT22;3138;52.550;13.148;2022-09-01T13:38:49;22.20;50.50
6210;DHT22;3138;52.550;13.148;2022-09-01T13:41:15;22.20;51.80
6210;DHT22;3138;52.550;13.148;2022-09-01T13:43:43;22.00;51.60
6210;DHT22;3138;52.550;13.148;2022-09-01T13:46:09;21.90;51.30
6210;DHT22;3138;52.550;13.148;2022-09-01T13:48:36;21.60;51.10
6210;DHT22;3138;52.550;13.148;2022-09-01T13:51:03;21.80;51.70
6210;DHT22;3138;52.550;13.148;2022-09-01T13:53:31;22.20;52.20
6210;DHT22;3138;52.550;13.148;2022-09-01T13:55:58;22.20;52.20
6210;DHT22;3138;52.550;13.148;2022-09-01T13:58:25;22.30;50.30
6210;DHT22;3138;52.550;13.148;2022-09-01T14:00:52;22.50;47.90
6210;DHT22;3138;52.550;13.148;2022-09-01T14:03:21;22.10;46.40
6210;DHT22;3138;52.550;13.148;2022-09-01T14:05:48;22.20;46.50
6210;DHT22;3138;52.550;13.148;2022-09-01T14:08:20;22.40;48.10
6210;DHT22;3138;52.550;13.148;2022-09-01T14:10:50;22.20;48.20
6210;DHT22;3138;52.550;13.148;2022-09-01T14:13:18;22.00;49.00
6210;DHT22;3138;52.550;13.148;2022-09-01T14:15:46;21.90;49.10
6210;DHT22;3138;52.550;13.148;2022-09-01T14:18:14;22.10;49.20
6210;DHT22;3138;52.550;13.148;2022-09-01T14:20:43;22.20;50.40
6210;DHT22;3138;52.550;13.148;2022-09-01T14:23:10;22.00;48.80
6210;DHT22;3138;52.550;13.148;2022-09-01T14:25:41;21.90;49.40
6210;DHT22;3138;52.550;13.148;2022-09-01T14:28:10;21.70;49.80
6210;DHT22;3138;52.550;13.148;2022-09-01T14:30:39;21.50;49.30
6210;DHT22;3138;52.550;13.148;2022-09-01T14:33:07;21.40;49.60
6210;DHT22;3138;52.550;13.148;2022-09-01T14:35:36;21.50;50.50
6210;DHT22;3138;52.550;13.148;2022-09-01T14:38:03;21.60;50.00
6210;DHT22;3138;52.550;13.148;2022-09-01T14:40:32;21.90;51.50
6210;DHT22;3138;52.550;13.148;2022-09-01T14:43:00;22.00;49.60
6210;DHT22;3138;52.550;13.148;2022-09-01T14:45:28;21.80;49.40
6210;DHT22;3138;52.550;13.148;2022-09-01T14:47:57;21.90;48.40
6210;DHT22;3138;52.550;13.148;2022-09-01T14:50:25;22.10;48.90
6210;DHT22;3138;52.550;13.148;2022-09-01T14:52:56;22.00;49.80
6210;DHT22;3138;52.550;13.148;2022-09-01T14:55:26;22.00;50.20
6210;DHT22;3138;52.550;13.148;2022-09-01T14:57:53;21.60;50.30
6210;DHT22;3138;52.550;13.148;2022-09-01T15:00:21;21.30;49.90
6210;DHT22;3138;52.550;13.148;2022-09-01T15:02:51;21.30;50.60
6210;DHT22;3138;52.550;13.148;2022-09-01T15:05:18;21.20;51.10
6210;DHT22;3138;52.550;13.148;2022-09-01T15:07:45;21.40;51.90
6210;DHT22;3138;52.550;13.148;2022-09-01T15:10:14;21.30;52.30
6210;DHT22;3138;52.550;13.148;2022-09-01T15:12:41;21.40;49.90
6210;DHT22;3138;52.550;13.148;2022-09-01T15:15:08;21.50;50.00
6210;DHT22;3138;52.550;13.148;2022-09-01T15:17:35;21.50;51.00
6210;DHT22;3138;52.550;13.148;2022-09-01T15:20:05;21.50;50.50
6210;DHT22;3138;52.550;13.148;2022-09-01T15:22:49;21.40;49.90
6210;DHT22;3138;52.550;13.148;2022-09-01T15:25:16;21.20;50.20
6210;DHT22;3138;52.550;13.148;2022-09-01T15:27:43;21.00;50.50
6210;DHT22;3138;52.550;13.148;2022-09-01T15:30:12;21.00;51.10
6210;DHT22;3138;52.550;13.148;2022-09-01T15:32:41;21.00;50.20
6210;DHT22;3138;52.550;13.148;2022-09-01T15:35:10;21.00;51.70
6210;DHT22;3138;52.550;13.148;2022-09-01T15:37:36;20.90;51.40
6210;DHT22;3138;52.550;13.148;2022-09-01T15:40:05;20.80;51.70
6210;DHT22;3138;52.550;13.148;2022-09-01T15:42:33;20.60;52.10
6210;DHT22;3138;52.550;13.148;2022-09-01T15:45:00;20.50;52.10
6210;DHT22;3138;52.550;13.148;2022-09-01T15:47:28;20.40;51.80
6210;DHT22;3138;52.550;13.148;2022-09-01T15:49:55;20.40;53.00
6210;DHT22;3138;52.550;13.148;2022-09-01T15:52:23;20.40;53.50
6210;DHT22;3138;52.550;13.148;2022-09-01T15:54:52;20.40;54.10
6210;DHT22;3138;52.550;13.148;2022-09-01T15:57:19;20.30;53.60
6210;DHT22;3138;52.550;13.148;2022-09-01T15:59:46;20.30;54.70
6210;DHT22;3138;52.550;13.148;2022-09-01T16:02:12;20.20;54.30
6210;DHT22;3138;52.550;13.148;2022-09-01T16:04:42;20.20;55.10
6210;DHT22;3138;52.550;13.148;2022-09-01T16:07:09;20.20;55.20
6210;DHT22;3138;52.550;13.148;2022-09-01T16:09:37;20.20;55.60
6210;DHT22;3138;52.550;13.148;2022-09-01T16:12:05;20.10;56.30
6210;DHT22;3138;52.550;13.148;2022-09-01T16:14:32;20.00;56.90
6210;DHT22;3138;52.550;13.148;2022-09-01T16:17:02;20.10;56.50
6210;DHT22;3138;52.550;13.148;2022-09-01T16:19:38;20.10;56.00
6210;DHT22;3138;52.550;13.148;2022-09-01T16:22:12;20.10;56.90
6210;DHT22;3138;52.550;13.148;2022-09-01T16:24:44;20.10;56.90
6210;DHT22;3138;52.550;13.148;2022-09-01T16:27:14;20.10;56.10